Webcam Flughafen St.Gallen-Altenrhein

Live-Bilder und Zeitraffer LSZR / ACH.

 

Live aus Altenrhein
LIVE
LSZR 120920Z 31004KT CAVOK 24/20 Q1017 NOSIG RMK F
Zeitraffer heute
2020-08-12 00:14:12
LSZR 112150Z AUTO VRB02KT CAVOK 21/18 Q1017